Flight Track Log - Related Links

Times and Time Zones

All times are in EDT time to prevent confusion due to time zone crossing. See the FFT919 flight status page for this flight to view local times or setup timezone preferences in your user account.

Time Position Orientation Groundspeed Altitude Reporting Facility
EDT Latitude Longitude Course Direction KTS MPH feet Rate Location/Type
Sun 02:28:12 PM 40.2220 -74.8770 222° Southwest 210 242 3,100  Level FlightAware
Sun 02:28:32 PM 40.2080 -74.8940 223° Southwest 244 281 3,500 1,950 Climbing FlightAware
Sun 02:28:52 PM 40.1900 -74.9170 224° Southwest 267 307 4,400 3,000 Climbing FlightAware
Sun 02:29:08 PM 40.1750 -74.9350 223° Southwest 273 314 5,300 3,333 Climbing FlightAware
Sun 02:29:28 PM 40.1570 -74.9570 223° Southwest 271 312 6,400 2,700 Climbing FlightAware
Sun 02:29:48 PM 40.1380 -74.9800 223° Southwest 277 319 7,100 1,050 Climbing FlightAware
Sun 02:30:08 PM 40.1160 -75.0010 216° Southwest 282 325 7,100  Level FlightAware
Sun 02:30:16 PM 40.1060 -75.0060 201° Southwest 286 329 7,100 -375 Level FlightAware
Sun 02:30:24 PM 40.0960 -75.0070 184° South 292 336 7,000  Descending FlightAware
Sun 02:30:44 PM 40.0700 -75.0050 177° South 299 344 7,100 600 Climbing FlightAware
Sun 02:31:04 PM 40.0420 -75.0020 175° South 304 350 7,400 1,714 Climbing FlightAware
Sun 02:31:19 PM 40.0220 -74.9990 173° South 310 357 8,100 2,930 Climbing FlightAware
Sun 02:31:47 PM 39.9860 -75.0070 190° South 296 341 9,500 1,846 Climbing FlightAware
Sun 02:32:24 PM 39.9370 -75.0470 212° Southwest 336 387 10,100 522 Climbing FlightAware
Sun 02:32:56 PM 39.8960 -75.0830 214° Southwest 349 402 10,100 1,147 Level FlightAware
Sun 02:33:32 PM 39.8450 -75.1260 213° Southwest 351 404 11,400 1,690 Climbing FlightAware
Sun 02:34:07 PM 39.7990 -75.1660 214° Southwest 356 410 12,100 600 Climbing FlightAware
Sun 02:34:42 PM 39.7490 -75.2080 213° Southwest 360 414 12,100  Level FlightAware
Sun 02:35:16 PM 39.7020 -75.2480 213° Southwest 358 412 12,100  Level FlightAware
Sun 02:35:52 PM 39.6530 -75.2900 213° Southwest 361 415 12,100  Level FlightAware
Sun 02:36:08 PM 39.6260 -75.3040 202° Southwest 368 423 12,100  Level FlightAware
Sun 02:36:39 PM 39.5750 -75.3150 189° South 369 425 12,100  Level FlightAware
Sun 02:37:16 PM 39.5120 -75.3260 188° South 369 425 12,100  Level FlightAware
Sun 02:37:52 PM 39.4510 -75.3370 188° South 371 427 12,100 711 Level FlightAware
Sun 02:38:32 PM 39.3830 -75.3500 188° South 379 436 13,000 1,800 Climbing FlightAware
Sun 02:39:02 PM 39.3320 -75.3590 188° South 386 444 14,200 2,630 Climbing FlightAware
Sun 02:39:45 PM 39.2540 -75.3720 187° South 390 449 16,200 2,211 Climbing FlightAware
Sun 02:40:18 PM 39.1960 -75.3830 188° South 396 456 17,000 1,158 Climbing FlightAware
Sun 02:40:42 PM 39.1610 -75.3880 186° South 398 458 17,300 1,676 Climbing FlightAware
Sun 02:41:26 PM 39.0670 -75.4020 187° South 409 471 18,900 2,100 Climbing FlightAware
Sun 02:42:02 PM 38.9990 -75.4120 187° South 420 483 20,100 2,083 Climbing FlightAware
Sun 02:42:38 PM 38.9300 -75.4230 187° South 428 493 21,400 1,808 Climbing FlightAware
Sun 02:43:15 PM 38.8560 -75.4340 187° South 444 511 22,300 1,629 Climbing FlightAware
Sun 02:43:48 PM 38.7860 -75.4450 187° South 451 519 23,300 1,739 Climbing FlightAware
Sun 02:44:24 PM 38.7100 -75.4560 186° South 459 528 24,300 1,750 Climbing FlightAware
Sun 02:45:00 PM 38.6360 -75.4670 187° South 462 532 25,400 1,690 Climbing FlightAware
Sun 02:45:35 PM 38.5600 -75.4790 187° South 470 541 26,300 1,412 Climbing FlightAware
Sun 02:46:08 PM 38.4910 -75.4950 190° South 471 542 27,000 1,377 Climbing FlightAware
Sun 02:46:36 PM 38.4350 -75.5340 209° Southwest 470 541 27,700 1,355 Climbing FlightAware
Sun 02:47:10 PM 38.3730 -75.5860 213° Southwest 477 549 28,400 1,324 Climbing FlightAware
Sun 02:47:44 PM 38.3100 -75.6380 213° Southwest 481 554 29,200 1,154 Climbing FlightAware
Sun 02:48:28 PM 38.2260 -75.7070 213° Southwest 491 565 29,900 1,000 Climbing FlightAware
Sun 02:49:02 PM 38.1630 -75.7600 213° Southwest 496 571 30,500 1,164 Climbing FlightAware
Sun 02:49:35 PM 38.0970 -75.8150 213° Southwest 496 571 31,200 1,268 Climbing FlightAware
Sun 02:50:13 PM 38.0250 -75.8730 212° Southwest 475 547 32,000 649 Climbing FlightAware
Sun 02:50:49 PM 37.9600 -75.9270 213° Southwest 479 551 32,000  Level FlightAware
Sun 02:51:23 PM 37.8980 -75.9790 214° Southwest 485 558 32,000  Level FlightAware
Sun 02:51:55 PM 37.8360 -76.0300 213° Southwest 483 556 32,000  Level FlightAware
Sun 02:52:31 PM 37.7680 -76.0840 212° Southwest 482 555 32,000 -83 Level FlightAware
Sun 02:53:07 PM 37.7010 -76.1400 213° Southwest 481 554 31,900 -507 Descending FlightAware
Sun 02:53:42 PM 37.6370 -76.1910 212° Southwest 482 555 31,400 -973 Descending FlightAware
Sun 02:54:21 PM 37.5700 -76.2460 213° Southwest 477 549 30,700 -1,703 Descending FlightAware
Sun 02:54:56 PM 37.5070 -76.2970 213° Southwest 477 549 29,300 -2,480 Descending FlightAware
Sun 02:55:36 PM 37.4260 -76.3630 213° Southwest 463 533 27,600 -2,400 Descending FlightAware
Sun 02:56:06 PM 37.3780 -76.4010 212° Southwest 445 512 26,500 -2,471 Descending FlightAware
Sun 02:56:44 PM 37.3030 -76.4620 213° Southwest 448 516 24,800 -2,087 Descending FlightAware
Sun 02:57:15 PM 37.2600 -76.5020 217° Southwest 440 506 24,100 -923 Descending FlightAware
Sun 02:57:36 PM 37.2250 -76.5520 229° Southwest 433 498 24,000 -679 Descending FlightAware
Sun 02:58:08 PM 37.1880 -76.6110 232° Southwest 430 495 23,500 -1,000 Descending FlightAware
Sun 02:58:42 PM 37.1450 -76.6770 231° Southwest 432 497 22,900 -1,167 Descending FlightAware
Sun 02:59:20 PM 37.0960 -76.7530 231° Southwest 435 501 22,100 -771 Descending FlightAware
Sun 02:59:52 PM 37.0540 -76.8180 231° Southwest 438 504 22,000 -88 Descending FlightAware
Sun 03:00:28 PM 37.0100 -76.8870 231° Southwest 438 504 22,000  Level FlightAware
Sun 03:01:02 PM 36.9730 -76.9440 231° Southwest 438 504 22,000  Level FlightAware
Sun 03:01:38 PM 36.9340 -77.0040 231° Southwest 438 504 22,000  Level FlightAware
Sun 03:02:39 PM 36.8460 -77.1390 231° Southwest 435 501 22,000  Level FlightAware
Sun 03:03:12 PM 36.8070 -77.1980 230° Southwest 436 502 22,000  Level FlightAware
Sun 03:03:52 PM 36.7540 -77.2790 231° Southwest 436 502 22,000  Level FlightAware
Sun 03:04:30 PM 36.7130 -77.3430 231° Southwest 436 502 22,000  Level FlightAware
Sun 03:05:22 PM 36.6400 -77.4540 231° Southwest 435 501 22,000  Level FlightAware
Sun 03:05:58 PM 36.6000 -77.5130 230° Southwest 435 501 22,000  Level FlightAware
Sun 03:06:34 PM 36.5610 -77.5710 230° Southwest 435 501 22,000  Level FlightAware
Sun 03:07:10 PM 36.5210 -77.6300 230° Southwest 435 501 22,000  Level FlightAware
Sun 03:07:49 PM 36.4780 -77.6940 230° Southwest 435 501 22,000 -1,833 Level FlightAware
Sun 03:08:22 PM 36.4090 -77.8060 233° Southwest 422 486 19,800 -2,620 Descending FlightAware
Sun 03:09:00 PM 36.3640 -77.8760 231° Southwest 400 460 18,900 -1,865 Descending FlightAware
Sun 03:09:36 PM 36.3200 -77.9410 230° Southwest 394 453 17,500 -2,206 Descending FlightAware
Sun 03:10:08 PM 36.2840 -77.9950 230° Southwest 386 444 16,400 -2,029 Descending FlightAware
Sun 03:10:44 PM 36.2440 -78.0560 231° Southwest 377 434 15,200 -1,875 Descending FlightAware
Sun 03:10:56 PM 36.2310 -78.0760 231° Southwest 371 427 14,900 -1,500 Descending FlightAware
Sun 03:11:44 PM 36.1790 -78.1540 230° Southwest 359 413 13,700 -1,535 Descending FlightAware
Sun 03:12:22 PM 36.1450 -78.2200 237° Southwest 350 403 12,700 -1,541 Descending FlightAware
Sun 03:12:58 PM 36.1160 -78.2800 239° Southwest 343 395 11,800 -1,235 Descending FlightAware
Sun 03:13:30 PM 36.0910 -78.3330 240° Southwest 330 380 11,300 -1,000 Descending FlightAware
Sun 03:14:04 PM 36.0650 -78.3870 239° Southwest 321 369 10,700 -917 Descending FlightAware
Sun 03:14:42 PM 36.0370 -78.4440 239° Southwest 302 348 10,200 -828 Descending FlightAware
Sun 03:15:02 PM 36.0220 -78.4750 239° Southwest 300 345 9,900 -882 Descending FlightAware
Sun 03:15:16 PM 36.0130 -78.4950 241° Southwest 300 345 9,700 -833 Descending FlightAware
Sun 03:15:38 PM 35.9940 -78.5260 233° Southwest 302 348 9,400 -857 Descending FlightAware
Sun 03:15:58 PM 35.9740 -78.5480 222° Southwest 303 349 9,100 -947 Descending FlightAware
Sun 03:16:16 PM 35.9560 -78.5680 222° Southwest 303 349 8,800 -955 Descending FlightAware
Sun 03:16:42 PM 35.9270 -78.6000 222° Southwest 303 349 8,400 -913 Descending FlightAware
Sun 03:17:02 PM 35.9060 -78.6220 220° Southwest 300 345 8,100 -600 Descending FlightAware
Sun 03:17:22 PM 35.8850 -78.6410 216° Southwest 283 326 8,000 -150 Descending FlightAware
Sun 03:17:42 PM 35.8650 -78.6590 216° Southwest 262 302 8,000  Level FlightAware
Sun 03:18:00 PM 35.8470 -78.6740 214° Southwest 257 296 8,000  Level FlightAware
Sun 03:18:10 PM 35.8390 -78.6840 225° Southwest 254 292 8,000 -474 Level FlightAware
Sun 03:18:38 PM 35.8170 -78.7110 225° Southwest 253 291 7,700 -875 Descending FlightAware
Sun 03:18:58 PM 35.7990 -78.7330 225° Southwest 250 288 7,300 -1,080 Descending FlightAware
Sun 03:19:28 PM 35.7750 -78.7620 224° Southwest 233 268 6,800 -1,050 Descending FlightAware
Sun 03:19:38 PM 35.7680 -78.7710 226° Southwest 235 270 6,600 -857 Descending FlightAware
Sun 03:20:03 PM 35.7490 -78.7950 226° Southwest 218 251 6,300 -800 Descending FlightAware
Sun 03:20:23 PM 35.7340 -78.8130 224° Southwest 212 244 6,000 -900 Descending FlightAware
Sun 03:20:43 PM 35.7220 -78.8280 225° Southwest 208 239 5,700 -391 Descending FlightAware
Sun 03:21:09 PM 35.7080 -78.8460 226° Southwest 208 239 5,700 -1,371 Level FlightAware
Sun 03:21:18 PM 35.7060 -78.8640 262° West 199 229 4,900 -2,750 Descending FlightAware
Sun 03:21:33 PM 35.7120 -78.8760 302° West 191 220 4,600 -1,200 Descending FlightAware
Sun 03:21:43 PM 35.7190 -78.8830 321° Northwest 194 223 4,400 -900 Descending FlightAware
Sun 03:21:53 PM 35.7280 -78.8860 345° North 181 208 4,300 -1,200 Descending FlightAware
Sun 03:21:58 PM 35.7340 -78.8870 352° North 181 208 4,100 -1,200 Descending FlightAware
Sun 03:22:28 PM 35.7600 -78.8830 North 180 207 3,600 -933 Descending FlightAware
Sun 03:22:43 PM 35.7720 -78.8790 15° North 182 209 3,400 -1,200 Descending FlightAware
Sun 03:23:03 PM 35.7880 -78.8730 17° North 176 203 2,900 -1,350 Descending FlightAware
Sun 03:23:23 PM 35.8030 -78.8650 23° Northeast 162 186 2,500 -1,200 Descending FlightAware
Sun 03:23:43 PM 35.8160 -78.8550 32° Northeast 160 184 2,100 -1,200 Descending FlightAware
Sun 03:24:03 PM 35.8270 -78.8440 39° Northeast 149 171 1,700 -1,024 Descending FlightAware
Sun 03:24:24 PM 35.8350 -78.8340 45° Northeast 141 162 1,400 -367 Descending FlightAware
Sun 03:24:52 PM 35.8460 -78.8200 46° Northeast 141 162 1,400  Level FlightAware
Sun 03:32:00 PM 35.8667 -78.7833 349° North  Level FlightAware

Login

Don't have an account? Register now (free) for customized features, flight alerts, and more!